sensor_id;sensor_type;location;lat;lon;timestamp;pressure;altitude;pressure_sealevel;temperature;humidity
46846;BME280;33947;46.804;134.252;2022-12-04T00:01:47;101781.66;;;-14.99;57.90
46846;BME280;33947;46.804;134.252;2022-12-04T00:04:52;101742.25;;;-13.52;53.68
46846;BME280;33947;46.804;134.252;2022-12-04T00:07:57;101797.28;;;-12.88;52.10
46846;BME280;33947;46.804;134.252;2022-12-04T00:11:06;101800.31;;;-12.12;51.38
46846;BME280;33947;46.804;134.252;2022-12-04T00:14:11;101779.81;;;-11.50;49.33
46846;BME280;33947;46.804;134.252;2022-12-04T00:17:15;101799.41;;;-11.92;44.98
46846;BME280;33947;46.804;134.252;2022-12-04T00:20:20;101797.91;;;-11.06;49.84
46846;BME280;33947;46.804;134.252;2022-12-04T00:23:26;101792.09;;;-10.60;46.15
46846;BME280;33947;46.804;134.252;2022-12-04T00:26:31;101776.38;;;-11.18;46.64
46846;BME280;33947;46.804;134.252;2022-12-04T00:29:36;101792.91;;;-12.09;44.05
46846;BME280;33947;46.804;134.252;2022-12-04T00:32:40;101797.75;;;-12.12;46.09
46846;BME280;33947;46.804;134.252;2022-12-04T00:35:45;101768.09;;;-11.46;45.88
46846;BME280;33947;46.804;134.252;2022-12-04T00:38:49;101777.72;;;-11.01;44.14
46846;BME280;33947;46.804;134.252;2022-12-04T00:41:54;101764.97;;;-11.22;42.47
46846;BME280;33947;46.804;134.252;2022-12-04T00:44:58;101726.66;;;-11.30;43.33
46846;BME280;33947;46.804;134.252;2022-12-04T00:48:04;101742.28;;;-11.17;41.78
46846;BME280;33947;46.804;134.252;2022-12-04T00:51:14;101782.56;;;-10.83;41.70
46846;BME280;33947;46.804;134.252;2022-12-04T00:54:19;101770.56;;;-11.58;41.54
46846;BME280;33947;46.804;134.252;2022-12-04T00:57:23;101761.28;;;-10.26;45.00
46846;BME280;33947;46.804;134.252;2022-12-04T01:00:27;101773.50;;;-11.33;38.48
46846;BME280;33947;46.804;134.252;2022-12-04T01:03:32;101786.59;;;-13.03;41.58
46846;BME280;33947;46.804;134.252;2022-12-04T01:06:37;101776.69;;;-11.56;42.72
46846;BME280;33947;46.804;134.252;2022-12-04T01:09:41;101766.09;;;-11.82;43.14
46846;BME280;33947;46.804;134.252;2022-12-04T01:12:50;101808.34;;;-11.25;40.85
46846;BME280;33947;46.804;134.252;2022-12-04T01:15:54;101792.97;;;-12.49;38.88
46846;BME280;33947;46.804;134.252;2022-12-04T01:18:59;101802.94;;;-13.11;40.65
46846;BME280;33947;46.804;134.252;2022-12-04T01:22:05;101800.00;;;-12.86;42.21
46846;BME280;33947;46.804;134.252;2022-12-04T01:25:09;101789.97;;;-12.64;40.18
46846;BME280;33947;46.804;134.252;2022-12-04T01:28:14;101789.06;;;-12.04;40.41
46846;BME280;33947;46.804;134.252;2022-12-04T01:31:20;101791.09;;;-11.69;39.01
46846;BME280;33947;46.804;134.252;2022-12-04T01:34:25;101787.38;;;-12.14;38.47
46846;BME280;33947;46.804;134.252;2022-12-04T01:37:32;101795.72;;;-12.96;39.98
46846;BME280;33947;46.804;134.252;2022-12-04T01:40:43;101792.38;;;-12.15;40.39
46846;BME280;33947;46.804;134.252;2022-12-04T01:47:19;101786.47;;;-11.94;39.85
46846;BME280;33947;46.804;134.252;2022-12-04T01:50:28;101782.56;;;-12.51;40.74
46846;BME280;33947;46.804;134.252;2022-12-04T01:53:33;101782.72;;;-11.35;39.50
46846;BME280;33947;46.804;134.252;2022-12-04T01:56:45;101775.47;;;-12.03;38.09
46846;BME280;33947;46.804;134.252;2022-12-04T02:00:10;101769.47;;;-13.04;40.12
46846;BME280;33947;46.804;134.252;2022-12-04T02:03:15;101765.59;;;-13.09;41.32
46846;BME280;33947;46.804;134.252;2022-12-04T02:06:20;101730.13;;;-12.25;42.55
46846;BME280;33947;46.804;134.252;2022-12-04T02:09:25;101749.06;;;-11.81;41.39
46846;BME280;33947;46.804;134.252;2022-12-04T02:13:30;101763.19;;;-13.27;39.38
46846;BME280;33947;46.804;134.252;2022-12-04T02:16:56;101769.50;;;-13.23;41.93
46846;BME280;33947;46.804;134.252;2022-12-04T02:20:27;101763.09;;;-14.05;40.92
46846;BME280;33947;46.804;134.252;2022-12-04T02:27:05;101765.34;;;-13.31;43.00
46846;BME280;33947;46.804;134.252;2022-12-04T02:30:13;101751.81;;;-13.60;42.92
46846;BME280;33947;46.804;134.252;2022-12-04T02:33:22;101770.72;;;-13.77;42.61
46846;BME280;33947;46.804;134.252;2022-12-04T02:36:34;101742.47;;;-13.78;41.91
46846;BME280;33947;46.804;134.252;2022-12-04T02:39:43;101760.56;;;-13.47;42.60
46846;BME280;33947;46.804;134.252;2022-12-04T02:43:07;101754.25;;;-13.02;41.49
46846;BME280;33947;46.804;134.252;2022-12-04T02:46:46;101744.53;;;-13.55;41.32
46846;BME280;33947;46.804;134.252;2022-12-04T02:50:03;101751.09;;;-13.87;41.02
46846;BME280;33947;46.804;134.252;2022-12-04T02:53:15;101749.31;;;-13.20;44.03
46846;BME280;33947;46.804;134.252;2022-12-04T02:56:26;101751.50;;;-12.45;41.71
46846;BME280;33947;46.804;134.252;2022-12-04T02:59:40;101736.47;;;-14.26;40.29
46846;BME280;33947;46.804;134.252;2022-12-04T03:03:07;101750.78;;;-13.43;42.15
46846;BME280;33947;46.804;134.252;2022-12-04T03:06:11;101749.41;;;-12.99;41.89
46846;BME280;33947;46.804;134.252;2022-12-04T03:09:22;101746.97;;;-12.98;41.82
46846;BME280;33947;46.804;134.252;2022-12-04T03:12:47;101751.59;;;-12.64;41.71
46846;BME280;33947;46.804;134.252;2022-12-04T03:16:00;101750.50;;;-12.05;40.40
46846;BME280;33947;46.804;134.252;2022-12-04T03:22:15;101738.66;;;-11.83;40.23
46846;BME280;33947;46.804;134.252;2022-12-04T03:25:27;101713.59;;;-12.18;41.13
46846;BME280;33947;46.804;134.252;2022-12-04T03:35:28;101748.78;;;-11.95;41.44
46846;BME280;33947;46.804;134.252;2022-12-04T03:38:56;101744.44;;;-11.96;39.96
46846;BME280;33947;46.804;134.252;2022-12-04T03:42:17;101743.28;;;-11.79;40.49
46846;BME280;33947;46.804;134.252;2022-12-04T03:45:25;101747.28;;;-11.82;41.19
46846;BME280;33947;46.804;134.252;2022-12-04T03:48:53;101743.16;;;-12.53;40.20
46846;BME280;33947;46.804;134.252;2022-12-04T03:52:10;101737.75;;;-12.66;40.94
46846;BME280;33947;46.804;134.252;2022-12-04T03:55:29;101746.38;;;-12.85;42.09
46846;BME280;33947;46.804;134.252;2022-12-04T03:58:38;101751.47;;;-12.95;41.49
46846;BME280;33947;46.804;134.252;2022-12-04T04:01:47;101744.41;;;-12.58;42.34
46846;BME280;33947;46.804;134.252;2022-12-04T04:04:54;101730.63;;;-12.89;41.35
46846;BME280;33947;46.804;134.252;2022-12-04T04:08:02;101755.31;;;-12.90;42.05
46846;BME280;33947;46.804;134.252;2022-12-04T04:11:44;101742.19;;;-12.74;42.23
46846;BME280;33947;46.804;134.252;2022-12-04T04:14:57;101751.38;;;-13.16;42.74
46846;BME280;33947;46.804;134.252;2022-12-04T04:18:22;101748.44;;;-13.40;43.35
46846;BME280;33947;46.804;134.252;2022-12-04T04:21:48;101732.19;;;-13.70;42.59
46846;BME280;33947;46.804;134.252;2022-12-04T04:25:18;101772.13;;;-13.32;43.65
46846;BME280;33947;46.804;134.252;2022-12-04T04:28:39;101771.28;;;-13.22;43.61
46846;BME280;33947;46.804;134.252;2022-12-04T04:38:27;101796.13;;;-14.34;44.62
46846;BME280;33947;46.804;134.252;2022-12-04T04:41:52;101786.91;;;-13.96;45.27
46846;BME280;33947;46.804;134.252;2022-12-04T04:45:11;101787.06;;;-14.59;44.30
46846;BME280;33947;46.804;134.252;2022-12-04T04:48:31;101764.97;;;-13.93;44.49
46846;BME280;33947;46.804;134.252;2022-12-04T04:51:38;101751.81;;;-14.91;44.61
46846;BME280;33947;46.804;134.252;2022-12-04T04:54:43;101801.03;;;-14.64;44.84
46846;BME280;33947;46.804;134.252;2022-12-04T04:57:49;101809.88;;;-14.23;44.53
46846;BME280;33947;46.804;134.252;2022-12-04T05:01:04;101811.34;;;-14.90;44.85
46846;BME280;33947;46.804;134.252;2022-12-04T05:04:10;101809.88;;;-15.15;45.24
46846;BME280;33947;46.804;134.252;2022-12-04T05:07:15;101811.09;;;-14.65;44.66
46846;BME280;33947;46.804;134.252;2022-12-04T05:10:20;101801.19;;;-15.17;44.86
46846;BME280;33947;46.804;134.252;2022-12-04T05:13:25;101812.56;;;-15.04;46.11
46846;BME280;33947;46.804;134.252;2022-12-04T05:16:30;101815.38;;;-14.47;45.65
46846;BME280;33947;46.804;134.252;2022-12-04T05:19:35;101817.53;;;-15.15;45.63
46846;BME280;33947;46.804;134.252;2022-12-04T05:22:59;101801.94;;;-15.09;46.47
46846;BME280;33947;46.804;134.252;2022-12-04T05:26:04;101825.63;;;-15.45;46.29
46846;BME280;33947;46.804;134.252;2022-12-04T05:29:09;101823.41;;;-15.33;46.10
46846;BME280;33947;46.804;134.252;2022-12-04T05:32:13;101807.50;;;-15.22;46.54
46846;BME280;33947;46.804;134.252;2022-12-04T05:35:18;101824.56;;;-15.56;46.44
46846;BME280;33947;46.804;134.252;2022-12-04T05:38:22;101832.97;;;-15.39;47.08
46846;BME280;33947;46.804;134.252;2022-12-04T05:41:27;101817.25;;;-15.44;46.60
46846;BME280;33947;46.804;134.252;2022-12-04T05:44:31;101827.56;;;-15.43;46.97
46846;BME280;33947;46.804;134.252;2022-12-04T05:47:42;101827.44;;;-15.09;46.69
46846;BME280;33947;46.804;134.252;2022-12-04T05:50:47;101841.63;;;-15.90;48.36
46846;BME280;33947;46.804;134.252;2022-12-04T05:53:52;101831.59;;;-15.89;47.79
46846;BME280;33947;46.804;134.252;2022-12-04T05:56:56;101854.16;;;-15.92;48.10
46846;BME280;33947;46.804;134.252;2022-12-04T06:00:01;101858.94;;;-16.04;48.01
46846;BME280;33947;46.804;134.252;2022-12-04T06:03:12;101855.50;;;-16.04;48.46
46846;BME280;33947;46.804;134.252;2022-12-04T06:06:22;101837.47;;;-16.57;49.32
46846;BME280;33947;46.804;134.252;2022-12-04T06:09:27;101850.78;;;-16.26;49.50
46846;BME280;33947;46.804;134.252;2022-12-04T06:12:31;101836.59;;;-16.49;49.23
46846;BME280;33947;46.804;134.252;2022-12-04T06:15:39;101844.22;;;-16.15;49.79
46846;BME280;33947;46.804;134.252;2022-12-04T06:18:44;101862.78;;;-16.16;50.06
46846;BME280;33947;46.804;134.252;2022-12-04T06:21:51;101875.63;;;-15.90;49.52
46846;BME280;33947;46.804;134.252;2022-12-04T06:24:55;101872.88;;;-16.09;49.31
46846;BME280;33947;46.804;134.252;2022-12-04T06:28:00;101873.25;;;-16.22;49.67
46846;BME280;33947;46.804;134.252;2022-12-04T06:31:10;101877.63;;;-16.46;49.94
46846;BME280;33947;46.804;134.252;2022-12-04T06:34:15;101883.22;;;-16.32;50.62
46846;BME280;33947;46.804;134.252;2022-12-04T06:37:21;101879.00;;;-16.65;50.99
46846;BME280;33947;46.804;134.252;2022-12-04T06:40:26;101885.56;;;-16.42;50.85
46846;BME280;33947;46.804;134.252;2022-12-04T06:43:30;101886.66;;;-16.07;49.64
46846;BME280;33947;46.804;134.252;2022-12-04T06:46:35;101895.06;;;-16.33;49.14
46846;BME280;33947;46.804;134.252;2022-12-04T06:49:50;101899.38;;;-16.56;49.31
46846;BME280;33947;46.804;134.252;2022-12-04T06:52:55;101908.94;;;-16.63;49.81
46846;BME280;33947;46.804;134.252;2022-12-04T06:56:02;101921.81;;;-16.61;49.45
46846;BME280;33947;46.804;134.252;2022-12-04T06:59:07;101889.75;;;-17.34;49.66
46846;BME280;33947;46.804;134.252;2022-12-04T07:02:13;101871.22;;;-17.65;51.00
46846;BME280;33947;46.804;134.252;2022-12-04T07:05:18;101915.59;;;-17.29;50.75
46846;BME280;33947;46.804;134.252;2022-12-04T07:08:22;101927.50;;;-17.21;50.61
46846;BME280;33947;46.804;134.252;2022-12-04T07:11:28;101927.56;;;-17.28;50.72
46846;BME280;33947;46.804;134.252;2022-12-04T07:14:32;101897.84;;;-17.61;50.92
46846;BME280;33947;46.804;134.252;2022-12-04T07:17:37;101915.63;;;-17.61;51.11
46846;BME280;33947;46.804;134.252;2022-12-04T07:20:41;101913.00;;;-17.54;50.58
46846;BME280;33947;46.804;134.252;2022-12-04T07:23:50;101895.44;;;-17.76;50.87
46846;BME280;33947;46.804;134.252;2022-12-04T07:26:55;101906.13;;;-17.55;51.22
46846;BME280;33947;46.804;134.252;2022-12-04T07:30:00;101877.09;;;-17.89;51.12
46846;BME280;33947;46.804;134.252;2022-12-04T07:33:04;101922.28;;;-17.78;51.21
46846;BME280;33947;46.804;134.252;2022-12-04T07:36:12;101877.56;;;-17.84;51.06
46846;BME280;33947;46.804;134.252;2022-12-04T07:39:17;101830.56;;;-18.13;51.11
46846;BME280;33947;46.804;134.252;2022-12-04T07:42:22;101925.38;;;-17.57;50.22
46846;BME280;33947;46.804;134.252;2022-12-04T07:45:26;101917.81;;;-17.48;49.68
46846;BME280;33947;46.804;134.252;2022-12-04T07:48:30;101926.75;;;-17.68;49.92
46846;BME280;33947;46.804;134.252;2022-12-04T07:51:35;101886.31;;;-18.06;50.68
46846;BME280;33947;46.804;134.252;2022-12-04T07:54:40;101925.16;;;-17.75;50.74
46846;BME280;33947;46.804;134.252;2022-12-04T07:57:44;101920.81;;;-18.15;50.73
46846;BME280;33947;46.804;134.252;2022-12-04T08:00:49;101938.13;;;-18.03;51.32
46846;BME280;33947;46.804;134.252;2022-12-04T08:03:55;101928.47;;;-17.99;50.72
46846;BME280;33947;46.804;134.252;2022-12-04T08:07:00;101936.63;;;-17.78;50.71
46846;BME280;33947;46.804;134.252;2022-12-04T08:10:05;101936.31;;;-17.65;50.22
46846;BME280;33947;46.804;134.252;2022-12-04T08:13:09;101941.34;;;-17.58;49.43
46846;BME280;33947;46.804;134.252;2022-12-04T08:16:14;101950.38;;;-17.76;49.46
46846;BME280;33947;46.804;134.252;2022-12-04T08:19:20;101925.03;;;-18.15;50.12
46846;BME280;33947;46.804;134.252;2022-12-04T08:22:24;101941.72;;;-18.48;49.73
46846;BME280;33947;46.804;134.252;2022-12-04T08:25:28;101936.28;;;-18.51;51.72
46846;BME280;33947;46.804;134.252;2022-12-04T08:28:34;101923.97;;;-18.48;51.03
46846;BME280;33947;46.804;134.252;2022-12-04T08:31:39;101941.72;;;-18.25;50.37
46846;BME280;33947;46.804;134.252;2022-12-04T08:34:43;101956.06;;;-18.25;50.24
46846;BME280;33947;46.804;134.252;2022-12-04T08:37:54;101963.28;;;-18.52;49.89
46846;BME280;33947;46.804;134.252;2022-12-04T08:41:03;101954.06;;;-18.96;51.12
46846;BME280;33947;46.804;134.252;2022-12-04T08:44:08;101965.97;;;-18.81;51.78
46846;BME280;33947;46.804;134.252;2022-12-04T08:47:13;101954.53;;;-19.08;51.67
46846;BME280;33947;46.804;134.252;2022-12-04T08:50:17;101951.66;;;-19.11;51.94
46846;BME280;33947;46.804;134.252;2022-12-04T08:53:22;101962.13;;;-18.70;51.26
46846;BME280;33947;46.804;134.252;2022-12-04T08:56:27;101954.63;;;-19.29;52.00
46846;BME280;33947;46.804;134.252;2022-12-04T08:59:32;101922.81;;;-19.42;52.05
46846;BME280;33947;46.804;134.252;2022-12-04T09:02:36;101950.72;;;-18.73;50.49
46846;BME280;33947;46.804;134.252;2022-12-04T09:05:42;101956.19;;;-18.78;49.73
46846;BME280;33947;46.804;134.252;2022-12-04T09:08:51;101931.81;;;-19.29;51.02
46846;BME280;33947;46.804;134.252;2022-12-04T09:11:57;101940.88;;;-19.39;51.05
46846;BME280;33947;46.804;134.252;2022-12-04T09:15:01;101941.03;;;-19.30;51.20
46846;BME280;33947;46.804;134.252;2022-12-04T09:18:07;101909.84;;;-19.74;51.36
46846;BME280;33947;46.804;134.252;2022-12-04T09:21:13;101943.69;;;-19.88;52.75
46846;BME280;33947;46.804;134.252;2022-12-04T09:24:19;101926.56;;;-20.41;53.24
46846;BME280;33947;46.804;134.252;2022-12-04T09:27:24;101938.63;;;-19.81;53.91
46846;BME280;33947;46.804;134.252;2022-12-04T09:30:29;101936.78;;;-19.89;53.87
46846;BME280;33947;46.804;134.252;2022-12-04T09:33:33;101937.75;;;-19.96;53.11
46846;BME280;33947;46.804;134.252;2022-12-04T09:36:38;101941.84;;;-19.67;52.98
46846;BME280;33947;46.804;134.252;2022-12-04T09:39:42;101936.13;;;-20.10;53.36
46846;BME280;33947;46.804;134.252;2022-12-04T09:43:34;101940.66;;;-20.07;53.13
46846;BME280;33947;46.804;134.252;2022-12-04T09:56:14;101922.34;;;-19.75;51.95
46846;BME280;33947;46.804;134.252;2022-12-04T09:59:25;101914.09;;;-20.03;52.10
46846;BME280;33947;46.804;134.252;2022-12-04T10:02:33;101924.56;;;-20.07;52.79
46846;BME280;33947;46.804;134.252;2022-12-04T10:09:03;101923.81;;;-19.92;52.01
46846;BME280;33947;46.804;134.252;2022-12-04T10:22:54;101923.13;;;-20.20;51.77
46846;BME280;33947;46.804;134.252;2022-12-04T10:26:02;101901.25;;;-20.48;52.50
46846;BME280;33947;46.804;134.252;2022-12-04T10:29:16;101906.13;;;-20.43;52.19
46846;BME280;33947;46.804;134.252;2022-12-04T10:32:25;101929.75;;;-20.78;53.71
46846;BME280;33947;46.804;134.252;2022-12-04T10:35:34;101922.03;;;-20.36;52.54
46846;BME280;33947;46.804;134.252;2022-12-04T10:42:46;101926.72;;;-20.03;51.01
46846;BME280;33947;46.804;134.252;2022-12-04T10:45:52;101898.38;;;-20.30;50.41
46846;BME280;33947;46.804;134.252;2022-12-04T10:49:05;101915.53;;;-20.05;50.14
46846;BME280;33947;46.804;134.252;2022-12-04T10:52:15;101909.38;;;-20.29;50.54
46846;BME280;33947;46.804;134.252;2022-12-04T10:55:32;101914.09;;;-20.18;50.88
46846;BME280;33947;46.804;134.252;2022-12-04T10:58:36;101905.94;;;-20.52;51.89
46846;BME280;33947;46.804;134.252;2022-12-04T11:01:41;101892.03;;;-20.84;52.40
46846;BME280;33947;46.804;134.252;2022-12-04T11:04:56;101907.16;;;-20.70;52.18
46846;BME280;33947;46.804;134.252;2022-12-04T11:08:03;101915.00;;;-21.24;53.83
46846;BME280;33947;46.804;134.252;2022-12-04T11:11:11;101893.91;;;-21.60;54.21
46846;BME280;33947;46.804;134.252;2022-12-04T11:14:21;101907.03;;;-21.28;54.78
46846;BME280;33947;46.804;134.252;2022-12-04T11:17:26;101889.19;;;-21.22;54.93
46846;BME280;33947;46.804;134.252;2022-12-04T11:20:31;101897.72;;;-21.14;54.71
46846;BME280;33947;46.804;134.252;2022-12-04T11:23:46;101900.78;;;-21.93;54.50
46846;BME280;33947;46.804;134.252;2022-12-04T11:26:52;101891.50;;;-22.07;55.50
46846;BME280;33947;46.804;134.252;2022-12-04T11:30:00;101897.75;;;-21.84;55.89
46846;BME280;33947;46.804;134.252;2022-12-04T11:33:15;101892.59;;;-22.05;55.90
46846;BME280;33947;46.804;134.252;2022-12-04T11:36:25;101882.25;;;-21.87;55.96
46846;BME280;33947;46.804;134.252;2022-12-04T11:39:37;101887.50;;;-21.43;54.84
46846;BME280;33947;46.804;134.252;2022-12-04T11:42:42;101874.63;;;-21.66;54.15
46846;BME280;33947;46.804;134.252;2022-12-04T11:46:01;101875.53;;;-21.59;53.75
46846;BME280;33947;46.804;134.252;2022-12-04T11:49:22;101877.69;;;-21.69;53.09
46846;BME280;33947;46.804;134.252;2022-12-04T12:15:49;101867.88;;;-22.35;54.56
46846;BME280;33947;46.804;134.252;2022-12-04T12:19:11;101858.25;;;-22.25;54.18
46846;BME280;33947;46.804;134.252;2022-12-04T12:36:02;101852.25;;;-22.33;54.22
46846;BME280;33947;46.804;134.252;2022-12-04T12:39:38;101858.19;;;-22.32;54.67
46846;BME280;33947;46.804;134.252;2022-12-04T12:42:50;101857.97;;;-22.81;55.72
46846;BME280;33947;46.804;134.252;2022-12-04T12:46:17;101847.91;;;-22.61;55.69
46846;BME280;33947;46.804;134.252;2022-12-04T12:49:33;101847.34;;;-22.38;54.35
46846;BME280;33947;46.804;134.252;2022-12-04T12:52:46;101846.25;;;-22.88;54.33
46846;BME280;33947;46.804;134.252;2022-12-04T12:56:00;101833.19;;;-22.98;54.70
46846;BME280;33947;46.804;134.252;2022-12-04T12:59:14;101849.31;;;-23.04;55.73
46846;BME280;33947;46.804;134.252;2022-12-04T13:02:35;101851.41;;;-22.74;55.05
46846;BME280;33947;46.804;134.252;2022-12-04T13:05:47;101829.56;;;-23.01;55.29
46846;BME280;33947;46.804;134.252;2022-12-04T13:09:02;101847.84;;;-23.09;55.74
46846;BME280;33947;46.804;134.252;2022-12-04T13:12:12;101851.38;;;-23.14;56.28
46846;BME280;33947;46.804;134.252;2022-12-04T13:15:20;101845.91;;;-23.04;56.63
46846;BME280;33947;46.804;134.252;2022-12-04T13:18:31;101777.25;;;-23.23;55.43
46846;BME280;33947;46.804;134.252;2022-12-04T13:28:33;101825.72;;;-22.71;54.73
46846;BME280;33947;46.804;134.252;2022-12-04T13:32:27;101820.75;;;-22.84;54.99
46846;BME280;33947;46.804;134.252;2022-12-04T13:42:05;101809.50;;;-22.93;54.22
46846;BME280;33947;46.804;134.252;2022-12-04T13:45:27;101817.25;;;-23.32;54.96
46846;BME280;33947;46.804;134.252;2022-12-04T13:48:38;101828.66;;;-23.41;55.96
46846;BME280;33947;46.804;134.252;2022-12-04T13:51:46;101808.00;;;-23.39;54.93
46846;BME280;33947;46.804;134.252;2022-12-04T13:54:59;101806.47;;;-23.64;55.98
46846;BME280;33947;46.804;134.252;2022-12-04T14:01:40;101788.47;;;-24.00;57.27
46846;BME280;33947;46.804;134.252;2022-12-04T14:05:05;101833.47;;;-23.43;56.82
46846;BME280;33947;46.804;134.252;2022-12-04T14:08:24;101823.75;;;-23.60;55.06
46846;BME280;33947;46.804;134.252;2022-12-04T14:11:40;101816.69;;;-23.83;55.72
46846;BME280;33947;46.804;134.252;2022-12-04T14:14:58;101815.50;;;-24.05;56.07
46846;BME280;33947;46.804;134.252;2022-12-04T14:21:15;101812.00;;;-24.00;56.66
46846;BME280;33947;46.804;134.252;2022-12-04T14:24:36;101808.59;;;-23.67;56.41
46846;BME280;33947;46.804;134.252;2022-12-04T14:27:43;101820.06;;;-23.69;56.21
46846;BME280;33947;46.804;134.252;2022-12-04T14:31:42;101818.22;;;-23.45;55.54
46846;BME280;33947;46.804;134.252;2022-12-04T14:34:29;101794.88;;;-23.90;55.85
46846;BME280;33947;46.804;134.252;2022-12-04T14:37:41;101810.00;;;-23.69;56.00
46846;BME280;33947;46.804;134.252;2022-12-04T14:40:50;101803.72;;;-23.53;55.04
46846;BME280;33947;46.804;134.252;2022-12-04T14:43:56;101809.44;;;-23.41;54.11
46846;BME280;33947;46.804;134.252;2022-12-04T14:50:47;101819.66;;;-23.26;56.77
46846;BME280;33947;46.804;134.252;2022-12-04T14:54:22;101811.88;;;-23.48;56.26
46846;BME280;33947;46.804;134.252;2022-12-04T14:57:52;101806.75;;;-23.42;56.62
46846;BME280;33947;46.804;134.252;2022-12-04T15:01:02;101798.53;;;-23.14;55.20
46846;BME280;33947;46.804;134.252;2022-12-04T15:04:31;101798.63;;;-23.27;54.50
46846;BME280;33947;46.804;134.252;2022-12-04T15:07:50;101799.53;;;-23.26;54.37
46846;BME280;33947;46.804;134.252;2022-12-04T15:10:56;101785.97;;;-23.34;54.50
46846;BME280;33947;46.804;134.252;2022-12-04T15:14:20;101785.69;;;-23.43;55.81
46846;BME280;33947;46.804;134.252;2022-12-04T15:17:24;101790.13;;;-23.81;56.53
46846;BME280;33947;46.804;134.252;2022-12-04T15:20:39;101778.47;;;-23.93;58.14
46846;BME280;33947;46.804;134.252;2022-12-04T15:23:45;101794.72;;;-23.38;57.07
46846;BME280;33947;46.804;134.252;2022-12-04T15:26:53;101773.91;;;-23.37;56.31
46846;BME280;33947;46.804;134.252;2022-12-04T15:29:59;101781.06;;;-23.20;55.85
46846;BME280;33947;46.804;134.252;2022-12-04T15:33:05;101757.13;;;-23.64;55.72
46846;BME280;33947;46.804;134.252;2022-12-04T15:39:53;101772.38;;;-23.29;55.34
46846;BME280;33947;46.804;134.252;2022-12-04T15:43:12;101784.72;;;-23.51;55.47
46846;BME280;33947;46.804;134.252;2022-12-04T15:46:25;101776.81;;;-23.34;56.24
46846;BME280;33947;46.804;134.252;2022-12-04T15:49:33;101755.25;;;-23.52;55.32
46846;BME280;33947;46.804;134.252;2022-12-04T15:55:54;101762.97;;;-23.70;55.43
46846;BME280;33947;46.804;134.252;2022-12-04T15:59:00;101777.31;;;-23.56;55.72
46846;BME280;33947;46.804;134.252;2022-12-04T16:02:27;101768.66;;;-23.58;55.96
46846;BME280;33947;46.804;134.252;2022-12-04T16:05:33;101794.13;;;-23.63;56.68
46846;BME280;33947;46.804;134.252;2022-12-04T16:08:42;101763.78;;;-23.77;56.50
46846;BME280;33947;46.804;134.252;2022-12-04T16:12:15;101791.72;;;-23.35;56.21
46846;BME280;33947;46.804;134.252;2022-12-04T16:15:20;101758.94;;;-23.22;55.61
46846;BME280;33947;46.804;134.252;2022-12-04T16:18:26;101763.28;;;-23.41;55.24
46846;BME280;33947;46.804;134.252;2022-12-04T16:21:31;101784.06;;;-23.63;55.52
46846;BME280;33947;46.804;134.252;2022-12-04T16:24:35;101797.78;;;-23.99;56.16
46846;BME280;33947;46.804;134.252;2022-12-04T16:27:40;101776.50;;;-23.96;56.69
46846;BME280;33947;46.804;134.252;2022-12-04T16:30:44;101785.69;;;-23.76;56.27
46846;BME280;33947;46.804;134.252;2022-12-04T16:33:50;101760.53;;;-24.09;56.73
46846;BME280;33947;46.804;134.252;2022-12-04T16:36:54;101779.81;;;-23.56;56.45
46846;BME280;33947;46.804;134.252;2022-12-04T16:40:01;101775.66;;;-23.89;56.87
46846;BME280;33947;46.804;134.252;2022-12-04T16:43:12;101780.56;;;-23.83;56.50
46846;BME280;33947;46.804;134.252;2022-12-04T16:46:18;101781.38;;;-23.90;56.86
46846;BME280;33947;46.804;134.252;2022-12-04T16:49:23;101780.03;;;-24.01;55.46
46846;BME280;33947;46.804;134.252;2022-12-04T16:52:28;101792.09;;;-24.24;56.97
46846;BME280;33947;46.804;134.252;2022-12-04T16:55:37;101769.38;;;-24.70;59.69
46846;BME280;33947;46.804;134.252;2022-12-04T16:58:42;101790.88;;;-24.34;58.32
46846;BME280;33947;46.804;134.252;2022-12-04T17:01:48;101774.19;;;-24.07;57.79
46846;BME280;33947;46.804;134.252;2022-12-04T17:04:53;101787.50;;;-23.88;57.09
46846;BME280;33947;46.804;134.252;2022-12-04T17:08:00;101793.41;;;-23.62;56.12
46846;BME280;33947;46.804;134.252;2022-12-04T17:11:06;101787.31;;;-23.90;56.05
46846;BME280;33947;46.804;134.252;2022-12-04T17:14:13;101791.06;;;-24.06;56.73
46846;BME280;33947;46.804;134.252;2022-12-04T17:17:18;101791.53;;;-23.83;56.18
46846;BME280;33947;46.804;134.252;2022-12-04T17:20:23;101738.78;;;-24.42;56.79
46846;BME280;33947;46.804;134.252;2022-12-04T17:23:27;101769.22;;;-24.33;56.72
46846;BME280;33947;46.804;134.252;2022-12-04T17:26:31;101772.00;;;-24.24;57.42
46846;BME280;33947;46.804;134.252;2022-12-04T17:29:36;101771.72;;;-24.46;57.02
46846;BME280;33947;46.804;134.252;2022-12-04T17:32:40;101776.22;;;-24.18;57.07
46846;BME280;33947;46.804;134.252;2022-12-04T17:35:44;101779.56;;;-23.91;56.69
46846;BME280;33947;46.804;134.252;2022-12-04T17:38:55;101782.91;;;-23.85;57.21
46846;BME280;33947;46.804;134.252;2022-12-04T17:42:00;101759.34;;;-24.19;57.08
46846;BME280;33947;46.804;134.252;2022-12-04T17:45:06;101783.84;;;-24.10;56.34
46846;BME280;33947;46.804;134.252;2022-12-04T17:48:11;101774.34;;;-23.80;56.67
46846;BME280;33947;46.804;134.252;2022-12-04T17:51:19;101792.78;;;-23.53;55.61
46846;BME280;33947;46.804;134.252;2022-12-04T17:54:25;101785.16;;;-23.61;55.10